[source: ADDS]
METAR
EDMA 210920Z VRB02KT 9999 FEW011 BKN078 10/06 Q1004 RMK ATIS FOX =
TAF
TAF EDMA 210800Z 2109/2118 24005KT 9999 SCT035 PROB30 TEMPO 2114/2118 SHRA SCT040CB =
SR / SS: 04:15 / 18:18 UTC (Referenz EDMA 2014-04-21)
Start

PostHeaderIcon Fliegergruppe Giengen / Brenz e.V.

Hallo und herzlich Willkommen auf unserer Vereins Web-Seite.

Unser am Rande des schönen Albtraufs gelegener Platz eignet sich mit seiner 480m langen Asphaltpiste und den beiden sehr gepflegten Graspisten für ganzjährige Flüge im süddeutschen Luftraum. Die Schwäbsche Alb, das  wunderschöne Allgäu sowie ein Ausflug über die Bayerischen- und Württembergischen Königsschlösser einschließlich dem Alpen und Bodenseeraum laden geradezu ein, bei uns eine Zwischenlandung einzulegen.

Um den Flugplatz herum gibt es viele schöne Wanderwege, besuchen Sie die "Hauptstadt der Teddybären" und das "Margarete Steiff Museum" in Giengen.

Jedes Jahr im April findet unser großer Erlebnistag statt. Einen Zeitungsbericht mit Bildern findet ihr unter: Südwestpresse

 

 

PostHeaderIcon Termine 2014


Großer Erlebnistag am 27.04.2014 ab 10:30 auf der Irpfel



WebCam Vorfeld Blickrichtung Westen: